sensor_id;sensor_type;location;lat;lon;timestamp;pressure;altitude;pressure_sealevel;temperature;humidity
4167;BME280;2097;51.104;7.150;2023-03-19T00:01:46;98440.03;;;9.63;94.43
4167;BME280;2097;51.104;7.150;2023-03-19T00:04:13;98457.31;;;9.63;94.75
4167;BME280;2097;51.104;7.150;2023-03-19T00:06:40;98454.31;;;9.55;94.88
4167;BME280;2097;51.104;7.150;2023-03-19T00:09:07;98456.00;;;9.56;95.24
4167;BME280;2097;51.104;7.150;2023-03-19T00:11:34;98464.63;;;9.56;95.16
4167;BME280;2097;51.104;7.150;2023-03-19T00:14:01;98456.00;;;9.56;95.20
4167;BME280;2097;51.104;7.150;2023-03-19T00:16:29;98448.41;;;9.53;95.17
4167;BME280;2097;51.104;7.150;2023-03-19T00:18:56;98460.81;;;9.62;95.22
4167;BME280;2097;51.104;7.150;2023-03-19T00:21:23;98461.56;;;9.64;95.42
4167;BME280;2097;51.104;7.150;2023-03-19T00:23:50;98460.63;;;9.65;95.33
4167;BME280;2097;51.104;7.150;2023-03-19T00:26:17;98460.63;;;9.65;95.26
4167;BME280;2097;51.104;7.150;2023-03-19T00:28:44;98455.47;;;9.65;95.31
4167;BME280;2097;51.104;7.150;2023-03-19T00:31:12;98463.34;;;9.63;95.20
4167;BME280;2097;51.104;7.150;2023-03-19T00:33:41;98454.16;;;9.58;95.41
4167;BME280;2097;51.104;7.150;2023-03-19T00:36:09;98454.59;;;9.50;95.77
4167;BME280;2097;51.104;7.150;2023-03-19T00:38:36;98457.72;;;9.41;95.77
4167;BME280;2097;51.104;7.150;2023-03-19T00:41:03;98420.41;;;9.16;96.25
4167;BME280;2097;51.104;7.150;2023-03-19T00:43:31;98454.56;;;9.36;96.52
4167;BME280;2097;51.104;7.150;2023-03-19T00:45:59;98441.91;;;9.32;96.21
4167;BME280;2097;51.104;7.150;2023-03-19T00:48:26;98451.91;;;9.38;96.40
4167;BME280;2097;51.104;7.150;2023-03-19T00:50:54;98455.25;;;9.40;96.25
4167;BME280;2097;51.104;7.150;2023-03-19T00:53:21;98451.72;;;9.41;96.16
4167;BME280;2097;51.104;7.150;2023-03-19T00:55:48;98450.25;;;9.37;96.10
4167;BME280;2097;51.104;7.150;2023-03-19T00:58:15;98455.13;;;9.27;96.44
4167;BME280;2097;51.104;7.150;2023-03-19T01:00:41;98458.41;;;9.15;96.96
4167;BME280;2097;51.104;7.150;2023-03-19T01:03:08;98459.84;;;9.05;97.18
4167;BME280;2097;51.104;7.150;2023-03-19T01:05:35;98455.19;;;8.97;97.70
4167;BME280;2097;51.104;7.150;2023-03-19T01:08:03;98454.88;;;8.87;97.97
4167;BME280;2097;51.104;7.150;2023-03-19T01:10:32;98452.63;;;8.81;98.07
4167;BME280;2097;51.104;7.150;2023-03-19T01:12:59;98451.41;;;8.73;98.23
4167;BME280;2097;51.104;7.150;2023-03-19T01:15:26;98452.59;;;8.67;98.57
4167;BME280;2097;51.104;7.150;2023-03-19T01:17:53;98448.56;;;8.62;98.94
4167;BME280;2097;51.104;7.150;2023-03-19T01:20:20;98449.59;;;8.59;98.97
4167;BME280;2097;51.104;7.150;2023-03-19T01:22:48;98449.84;;;8.55;98.87
4167;BME280;2097;51.104;7.150;2023-03-19T01:25:16;98452.00;;;8.47;99.11
4167;BME280;2097;51.104;7.150;2023-03-19T01:27:43;98446.41;;;8.39;98.97
4167;BME280;2097;51.104;7.150;2023-03-19T01:30:11;98448.50;;;8.32;99.73
4167;BME280;2097;51.104;7.150;2023-03-19T01:32:38;98442.91;;;8.24;99.67
4167;BME280;2097;51.104;7.150;2023-03-19T01:35:05;98442.44;;;8.18;100.00
4167;BME280;2097;51.104;7.150;2023-03-19T01:37:32;98447.78;;;8.13;100.00
4167;BME280;2097;51.104;7.150;2023-03-19T01:39:59;98452.34;;;8.08;100.00
4167;BME280;2097;51.104;7.150;2023-03-19T01:42:28;98443.94;;;8.05;100.00
4167;BME280;2097;51.104;7.150;2023-03-19T01:44:54;98445.84;;;8.01;100.00
4167;BME280;2097;51.104;7.150;2023-03-19T01:47:28;98447.72;;;7.99;100.00
4167;BME280;2097;51.104;7.150;2023-03-19T01:49:56;98448.63;;;7.98;100.00
4167;BME280;2097;51.104;7.150;2023-03-19T01:52:28;98445.19;;;7.98;100.00
4167;BME280;2097;51.104;7.150;2023-03-19T01:54:59;98441.03;;;7.95;100.00
4167;BME280;2097;51.104;7.150;2023-03-19T01:57:29;98448.03;;;7.93;100.00
4167;BME280;2097;51.104;7.150;2023-03-19T02:00:00;98447.34;;;7.90;100.00
4167;BME280;2097;51.104;7.150;2023-03-19T02:02:28;98439.84;;;7.86;100.00
4167;BME280;2097;51.104;7.150;2023-03-19T02:04:57;98439.19;;;7.82;100.00
4167;BME280;2097;51.104;7.150;2023-03-19T02:07:27;98432.25;;;7.83;100.00
4167;BME280;2097;51.104;7.150;2023-03-19T02:09:55;98355.28;;;7.41;100.00
4167;BME280;2097;51.104;7.150;2023-03-19T02:12:22;98428.44;;;7.89;100.00
4167;BME280;2097;51.104;7.150;2023-03-19T02:14:50;98446.84;;;7.99;100.00
4167;BME280;2097;51.104;7.150;2023-03-19T02:17:17;98429.84;;;7.95;100.00
4167;BME280;2097;51.104;7.150;2023-03-19T02:19:49;98444.78;;;8.05;100.00
4167;BME280;2097;51.104;7.150;2023-03-19T02:22:21;98443.69;;;8.09;100.00
4167;BME280;2097;51.104;7.150;2023-03-19T02:24:52;98440.03;;;8.13;100.00
4167;BME280;2097;51.104;7.150;2023-03-19T02:27:20;98432.09;;;8.18;100.00
4167;BME280;2097;51.104;7.150;2023-03-19T02:29:47;98430.75;;;8.26;100.00
4167;BME280;2097;51.104;7.150;2023-03-19T02:32:14;98435.31;;;8.37;100.00
4167;BME280;2097;51.104;7.150;2023-03-19T02:34:42;98432.41;;;8.43;100.00
4167;BME280;2097;51.104;7.150;2023-03-19T02:37:13;98442.31;;;8.50;100.00
4167;BME280;2097;51.104;7.150;2023-03-19T02:39:49;98442.00;;;8.56;100.00
4167;BME280;2097;51.104;7.150;2023-03-19T02:42:20;98440.81;;;8.62;100.00
4167;BME280;2097;51.104;7.150;2023-03-19T02:44:48;98438.97;;;8.64;100.00
4167;BME280;2097;51.104;7.150;2023-03-19T02:47:15;98431.91;;;8.67;100.00
4167;BME280;2097;51.104;7.150;2023-03-19T02:49:42;98448.91;;;8.71;100.00
4167;BME280;2097;51.104;7.150;2023-03-19T02:52:09;98440.97;;;8.74;100.00
4167;BME280;2097;51.104;7.150;2023-03-19T02:54:35;98423.03;;;8.71;100.00
4167;BME280;2097;51.104;7.150;2023-03-19T02:57:03;98429.53;;;8.78;100.00
4167;BME280;2097;51.104;7.150;2023-03-19T02:59:31;98418.78;;;8.70;100.00
4167;BME280;2097;51.104;7.150;2023-03-19T03:01:58;98430.84;;;8.85;100.00
4167;BME280;2097;51.104;7.150;2023-03-19T03:04:24;98434.94;;;8.89;100.00
4167;BME280;2097;51.104;7.150;2023-03-19T03:06:51;98439.94;;;8.92;100.00
4167;BME280;2097;51.104;7.150;2023-03-19T03:09:19;98442.34;;;8.95;100.00
4167;BME280;2097;51.104;7.150;2023-03-19T03:11:45;98443.00;;;8.99;100.00
4167;BME280;2097;51.104;7.150;2023-03-19T03:14:12;98436.91;;;9.00;100.00
4167;BME280;2097;51.104;7.150;2023-03-19T03:16:40;98443.69;;;9.02;100.00
4167;BME280;2097;51.104;7.150;2023-03-19T03:19:07;98445.16;;;9.06;100.00
4167;BME280;2097;51.104;7.150;2023-03-19T03:21:34;98444.16;;;9.08;100.00
4167;BME280;2097;51.104;7.150;2023-03-19T03:24:01;98441.50;;;9.10;100.00
4167;BME280;2097;51.104;7.150;2023-03-19T03:26:27;98444.78;;;9.12;100.00
4167;BME280;2097;51.104;7.150;2023-03-19T03:28:54;98420.38;;;9.02;100.00
4167;BME280;2097;51.104;7.150;2023-03-19T03:31:21;98439.44;;;9.15;100.00
4167;BME280;2097;51.104;7.150;2023-03-19T03:33:49;98444.63;;;9.15;100.00
4167;BME280;2097;51.104;7.150;2023-03-19T03:36:17;98438.53;;;9.16;100.00
4167;BME280;2097;51.104;7.150;2023-03-19T03:38:44;98439.44;;;9.15;100.00
4167;BME280;2097;51.104;7.150;2023-03-19T03:41:11;98448.97;;;9.14;100.00
4167;BME280;2097;51.104;7.150;2023-03-19T03:43:38;98448.97;;;9.14;100.00
4167;BME280;2097;51.104;7.150;2023-03-19T03:46:05;98453.41;;;9.12;100.00
4167;BME280;2097;51.104;7.150;2023-03-19T03:48:33;98453.47;;;9.11;100.00
4167;BME280;2097;51.104;7.150;2023-03-19T03:51:01;98462.09;;;9.11;100.00
4167;BME280;2097;51.104;7.150;2023-03-19T03:53:28;98470.34;;;9.18;100.00
4167;BME280;2097;51.104;7.150;2023-03-19T03:55:55;98461.66;;;9.19;100.00
4167;BME280;2097;51.104;7.150;2023-03-19T03:58:22;98459.63;;;9.24;100.00
4167;BME280;2097;51.104;7.150;2023-03-19T04:00:49;98465.38;;;9.29;100.00
4167;BME280;2097;51.104;7.150;2023-03-19T04:03:16;98467.63;;;9.35;100.00
4167;BME280;2097;51.104;7.150;2023-03-19T04:05:44;98455.78;;;9.31;100.00
4167;BME280;2097;51.104;7.150;2023-03-19T04:08:12;98465.03;;;9.35;100.00
4167;BME280;2097;51.104;7.150;2023-03-19T04:10:39;98463.44;;;9.32;100.00
4167;BME280;2097;51.104;7.150;2023-03-19T04:13:06;98458.19;;;9.34;100.00
4167;BME280;2097;51.104;7.150;2023-03-19T04:15:33;98459.00;;;9.34;100.00
4167;BME280;2097;51.104;7.150;2023-03-19T04:18:10;98461.59;;;9.34;100.00
4167;BME280;2097;51.104;7.150;2023-03-19T04:20:37;98460.78;;;9.34;100.00
4167;BME280;2097;51.104;7.150;2023-03-19T04:23:04;98458.00;;;9.37;100.00
4167;BME280;2097;51.104;7.150;2023-03-19T04:25:32;98457.09;;;9.38;100.00
4167;BME280;2097;51.104;7.150;2023-03-19T04:27:59;98467.28;;;9.41;100.00
4167;BME280;2097;51.104;7.150;2023-03-19T04:30:26;98463.59;;;9.45;100.00
4167;BME280;2097;51.104;7.150;2023-03-19T04:32:53;98463.19;;;9.51;100.00
4167;BME280;2097;51.104;7.150;2023-03-19T04:35:21;98476.47;;;9.60;100.00
4167;BME280;2097;51.104;7.150;2023-03-19T04:37:47;98474.34;;;9.67;100.00
4167;BME280;2097;51.104;7.150;2023-03-19T04:40:15;98476.75;;;9.70;100.00
4167;BME280;2097;51.104;7.150;2023-03-19T04:42:44;98480.84;;;9.74;100.00
4167;BME280;2097;51.104;7.150;2023-03-19T04:45:11;98481.47;;;9.77;100.00
4167;BME280;2097;51.104;7.150;2023-03-19T04:47:38;98477.88;;;9.80;100.00
4167;BME280;2097;51.104;7.150;2023-03-19T04:50:07;98480.28;;;9.83;100.00
4167;BME280;2097;51.104;7.150;2023-03-19T04:52:34;98485.25;;;9.86;100.00
4167;BME280;2097;51.104;7.150;2023-03-19T04:55:01;98487.84;;;9.86;100.00
4167;BME280;2097;51.104;7.150;2023-03-19T04:57:28;98483.59;;;9.85;100.00
4167;BME280;2097;51.104;7.150;2023-03-19T05:00:00;98483.41;;;9.88;100.00
4167;BME280;2097;51.104;7.150;2023-03-19T05:02:30;98486.75;;;9.90;100.00
4167;BME280;2097;51.104;7.150;2023-03-19T05:04:57;98489.34;;;9.90;99.84
4167;BME280;2097;51.104;7.150;2023-03-19T05:07:24;98492.78;;;9.90;99.64
4167;BME280;2097;51.104;7.150;2023-03-19T05:09:50;98497.03;;;9.91;99.72
4167;BME280;2097;51.104;7.150;2023-03-19T05:12:17;98498.59;;;9.94;99.99
4167;BME280;2097;51.104;7.150;2023-03-19T05:14:44;98496.00;;;9.94;99.60
4167;BME280;2097;51.104;7.150;2023-03-19T05:17:12;98493.41;;;9.94;100.00
4167;BME280;2097;51.104;7.150;2023-03-19T05:19:40;98495.94;;;9.95;99.79
4167;BME280;2097;51.104;7.150;2023-03-19T05:22:06;98491.56;;;9.96;99.76
4167;BME280;2097;51.104;7.150;2023-03-19T05:24:33;98497.59;;;9.96;99.86
4167;BME280;2097;51.104;7.150;2023-03-19T05:27:00;98490.81;;;9.94;99.94
4167;BME280;2097;51.104;7.150;2023-03-19T05:29:27;98485.25;;;9.86;100.00
4167;BME280;2097;51.104;7.150;2023-03-19T05:31:55;98496.75;;;9.96;99.59
4167;BME280;2097;51.104;7.150;2023-03-19T05:34:23;98497.59;;;9.96;99.91
4167;BME280;2097;51.104;7.150;2023-03-19T05:36:50;98510.47;;;9.98;99.88
4167;BME280;2097;51.104;7.150;2023-03-19T05:39:16;98513.91;;;9.98;99.87
4167;BME280;2097;51.104;7.150;2023-03-19T05:41:44;98514.81;;;9.97;99.87
4167;BME280;2097;51.104;7.150;2023-03-19T05:44:10;98514.09;;;9.95;99.69
4167;BME280;2097;51.104;7.150;2023-03-19T05:46:37;98521.75;;;9.97;99.48
4167;BME280;2097;51.104;7.150;2023-03-19T05:49:04;98517.50;;;9.96;99.52
4167;BME280;2097;51.104;7.150;2023-03-19T05:51:32;98521.00;;;9.95;99.84
4167;BME280;2097;51.104;7.150;2023-03-19T05:53:59;98521.00;;;9.95;99.63
4167;BME280;2097;51.104;7.150;2023-03-19T05:56:26;98524.53;;;9.94;99.88
4167;BME280;2097;51.104;7.150;2023-03-19T05:58:53;98515.00;;;9.94;99.71
4167;BME280;2097;51.104;7.150;2023-03-19T06:01:20;98522.78;;;9.94;99.86
4167;BME280;2097;51.104;7.150;2023-03-19T06:03:47;98530.44;;;9.96;99.94
4167;BME280;2097;51.104;7.150;2023-03-19T06:06:14;98531.19;;;9.98;99.89
4167;BME280;2097;51.104;7.150;2023-03-19T06:08:42;98532.88;;;9.99;99.79
4167;BME280;2097;51.104;7.150;2023-03-19T06:11:09;98530.13;;;10.02;99.72
4167;BME280;2097;51.104;7.150;2023-03-19T06:13:35;98533.47;;;10.04;99.64
4167;BME280;2097;51.104;7.150;2023-03-19T06:16:02;98535.88;;;10.07;99.72
4167;BME280;2097;51.104;7.150;2023-03-19T06:18:29;98545.13;;;10.11;99.68
4167;BME280;2097;51.104;7.150;2023-03-19T06:20:56;98542.38;;;10.14;99.48
4167;BME280;2097;51.104;7.150;2023-03-19T06:23:23;98535.34;;;10.16;99.17
4167;BME280;2097;51.104;7.150;2023-03-19T06:25:51;98541.16;;;10.19;99.06
4167;BME280;2097;51.104;7.150;2023-03-19T06:28:18;98552.38;;;10.20;99.06
4167;BME280;2097;51.104;7.150;2023-03-19T06:30:45;98554.00;;;10.20;99.21
4167;BME280;2097;51.104;7.150;2023-03-19T06:33:12;98559.94;;;10.22;99.26
4167;BME280;2097;51.104;7.150;2023-03-19T06:35:39;98558.19;;;10.23;98.80
4167;BME280;2097;51.104;7.150;2023-03-19T06:38:06;98548.66;;;10.23;99.02
4167;BME280;2097;51.104;7.150;2023-03-19T06:40:33;98543.28;;;10.26;99.07
4167;BME280;2097;51.104;7.150;2023-03-19T06:43:01;98553.47;;;10.29;98.91
4167;BME280;2097;51.104;7.150;2023-03-19T06:45:27;98557.72;;;10.30;98.91
4167;BME280;2097;51.104;7.150;2023-03-19T06:47:56;98556.06;;;10.29;98.88
4167;BME280;2097;51.104;7.150;2023-03-19T06:50:23;98564.69;;;10.30;98.56
4167;BME280;2097;51.104;7.150;2023-03-19T06:52:50;98560.31;;;10.30;99.08
4167;BME280;2097;51.104;7.150;2023-03-19T06:55:17;98556.91;;;10.30;98.85
4167;BME280;2097;51.104;7.150;2023-03-19T06:57:47;98564.78;;;10.28;98.84
4167;BME280;2097;51.104;7.150;2023-03-19T07:00:18;98554.41;;;10.28;98.78
4167;BME280;2097;51.104;7.150;2023-03-19T07:02:45;98564.03;;;10.26;98.82
4167;BME280;2097;51.104;7.150;2023-03-19T07:05:11;98571.00;;;10.26;98.70
4167;BME280;2097;51.104;7.150;2023-03-19T07:07:38;98566.81;;;10.23;98.76
4167;BME280;2097;51.104;7.150;2023-03-19T07:10:06;98573.75;;;10.23;99.21
4167;BME280;2097;51.104;7.150;2023-03-19T07:12:33;98577.34;;;10.20;99.12
4167;BME280;2097;51.104;7.150;2023-03-19T07:15:00;98578.31;;;10.20;99.40
4167;BME280;2097;51.104;7.150;2023-03-19T07:17:28;98580.06;;;10.19;99.10
4167;BME280;2097;51.104;7.150;2023-03-19T07:19:55;98579.22;;;10.19;99.16
4167;BME280;2097;51.104;7.150;2023-03-19T07:22:21;98582.66;;;10.19;99.15
4167;BME280;2097;51.104;7.150;2023-03-19T07:24:48;98592.19;;;10.19;99.23
4167;BME280;2097;51.104;7.150;2023-03-19T07:27:15;98591.16;;;10.21;98.96
4167;BME280;2097;51.104;7.150;2023-03-19T07:29:42;98597.19;;;10.21;99.23
4167;BME280;2097;51.104;7.150;2023-03-19T07:32:09;98608.28;;;10.23;99.11
4167;BME280;2097;51.104;7.150;2023-03-19T07:34:38;98598.03;;;10.22;99.47
4167;BME280;2097;51.104;7.150;2023-03-19T07:37:05;98586.44;;;10.14;99.09
4167;BME280;2097;51.104;7.150;2023-03-19T07:39:32;98605.88;;;10.20;99.47
4167;BME280;2097;51.104;7.150;2023-03-19T07:41:59;98601.66;;;10.20;99.35
4167;BME280;2097;51.104;7.150;2023-03-19T07:44:26;98607.94;;;10.16;99.29
4167;BME280;2097;51.104;7.150;2023-03-19T07:46:53;98608.00;;;10.14;99.41
4167;BME280;2097;51.104;7.150;2023-03-19T07:49:21;98613.19;;;10.14;99.71
4167;BME280;2097;51.104;7.150;2023-03-19T07:51:49;98606.34;;;10.13;99.39
4167;BME280;2097;51.104;7.150;2023-03-19T07:54:16;98614.97;;;10.14;99.61
4167;BME280;2097;51.104;7.150;2023-03-19T07:56:43;98613.13;;;10.16;99.99
4167;BME280;2097;51.104;7.150;2023-03-19T07:59:10;98614.78;;;10.17;99.80
4167;BME280;2097;51.104;7.150;2023-03-19T08:01:37;98607.19;;;10.14;99.83
4167;BME280;2097;51.104;7.150;2023-03-19T08:04:04;98612.72;;;10.21;99.83
4167;BME280;2097;51.104;7.150;2023-03-19T08:06:30;98614.03;;;10.28;99.91
4167;BME280;2097;51.104;7.150;2023-03-19T08:08:59;98617.88;;;10.37;99.81
4167;BME280;2097;51.104;7.150;2023-03-19T08:11:26;98612.97;;;10.46;99.55
4167;BME280;2097;51.104;7.150;2023-03-19T08:13:54;98610.28;;;10.62;99.27
4167;BME280;2097;51.104;7.150;2023-03-19T08:16:21;98617.78;;;10.80;98.51
4167;BME280;2097;51.104;7.150;2023-03-19T08:18:47;98617.75;;;10.94;98.08
4167;BME280;2097;51.104;7.150;2023-03-19T08:21:14;98614.31;;;11.08;97.76
4167;BME280;2097;51.104;7.150;2023-03-19T08:23:41;98618.63;;;11.21;97.62
4167;BME280;2097;51.104;7.150;2023-03-19T08:26:09;98624.47;;;11.25;97.79
4167;BME280;2097;51.104;7.150;2023-03-19T08:28:36;98622.06;;;11.22;97.47
4167;BME280;2097;51.104;7.150;2023-03-19T08:31:07;98583.16;;;10.94;97.55
4167;BME280;2097;51.104;7.150;2023-03-19T08:33:34;98627.16;;;11.23;97.77
4167;BME280;2097;51.104;7.150;2023-03-19T08:36:06;98628.91;;;11.23;97.54
4167;BME280;2097;51.104;7.150;2023-03-19T08:38:33;98639.41;;;11.21;98.12
4167;BME280;2097;51.104;7.150;2023-03-19T08:41:00;98620.88;;;11.13;98.31
4167;BME280;2097;51.104;7.150;2023-03-19T08:43:31;98598.44;;;10.98;97.95
4167;BME280;2097;51.104;7.150;2023-03-19T08:45:58;98643.50;;;11.25;98.17
4167;BME280;2097;51.104;7.150;2023-03-19T08:48:26;98623.84;;;11.21;97.88
4167;BME280;2097;51.104;7.150;2023-03-19T08:50:53;98638.06;;;11.42;97.39
4167;BME280;2097;51.104;7.150;2023-03-19T08:53:20;98641.63;;;11.53;97.32
4167;BME280;2097;51.104;7.150;2023-03-19T08:55:51;98655.41;;;11.55;97.23
4167;BME280;2097;51.104;7.150;2023-03-19T08:58:18;98623.94;;;11.46;97.63
4167;BME280;2097;51.104;7.150;2023-03-19T09:00:46;98640.25;;;11.62;96.79
4167;BME280;2097;51.104;7.150;2023-03-19T09:03:14;98629.53;;;11.54;97.07
4167;BME280;2097;51.104;7.150;2023-03-19T09:05:41;98641.94;;;11.63;96.94
4167;BME280;2097;51.104;7.150;2023-03-19T09:08:09;98645.16;;;11.66;96.88
4167;BME280;2097;51.104;7.150;2023-03-19T09:10:36;98649.84;;;11.74;97.29
4167;BME280;2097;51.104;7.150;2023-03-19T09:13:03;98649.84;;;11.74;97.13
4167;BME280;2097;51.104;7.150;2023-03-19T09:15:30;98651.53;;;11.75;97.11
4167;BME280;2097;51.104;7.150;2023-03-19T09:17:58;98655.19;;;11.85;96.78
4167;BME280;2097;51.104;7.150;2023-03-19T09:20:25;98639.31;;;12.02;96.76
4167;BME280;2097;51.104;7.150;2023-03-19T09:22:52;98656.66;;;12.28;95.83
4167;BME280;2097;51.104;7.150;2023-03-19T09:25:18;98659.06;;;12.55;95.34
4167;BME280;2097;51.104;7.150;2023-03-19T09:27:46;98657.00;;;12.60;94.44
4167;BME280;2097;51.104;7.150;2023-03-19T09:30:13;98668.66;;;12.67;94.70
4167;BME280;2097;51.104;7.150;2023-03-19T09:32:40;98663.25;;;12.70;94.27
4167;BME280;2097;51.104;7.150;2023-03-19T09:35:09;98661.56;;;12.69;94.53
4167;BME280;2097;51.104;7.150;2023-03-19T09:37:36;98661.44;;;12.71;94.22
4167;BME280;2097;51.104;7.150;2023-03-19T09:40:04;98669.78;;;12.76;94.22
4167;BME280;2097;51.104;7.150;2023-03-19T09:42:44;98664.38;;;12.66;93.72
4167;BME280;2097;51.104;7.150;2023-03-19T09:45:18;98662.28;;;12.59;94.25
4167;BME280;2097;51.104;7.150;2023-03-19T09:47:48;98671.03;;;12.58;94.06
4167;BME280;2097;51.104;7.150;2023-03-19T09:50:19;98663.34;;;12.56;94.09
4167;BME280;2097;51.104;7.150;2023-03-19T09:52:48;98670.00;;;12.60;93.88
4167;BME280;2097;51.104;7.150;2023-03-19T09:55:30;98670.94;;;12.59;93.50
4167;BME280;2097;51.104;7.150;2023-03-19T09:57:59;98685.31;;;12.65;93.85
4167;BME280;2097;51.104;7.150;2023-03-19T10:00:29;98677.19;;;12.69;93.28
4167;BME280;2097;51.104;7.150;2023-03-19T10:03:02;98675.81;;;12.76;92.99
4167;BME280;2097;51.104;7.150;2023-03-19T10:05:43;98671.03;;;12.83;92.82
4167;BME280;2097;51.104;7.150;2023-03-19T10:08:24;98661.66;;;12.80;92.95
4167;BME280;2097;51.104;7.150;2023-03-19T10:11:07;98641.03;;;12.77;92.46
4167;BME280;2097;51.104;7.150;2023-03-19T10:13:51;98672.88;;;13.18;91.98
4167;BME280;2097;51.104;7.150;2023-03-19T10:16:24;98678.50;;;13.37;91.30
4167;BME280;2097;51.104;7.150;2023-03-19T10:18:55;98678.03;;;13.56;91.06
4167;BME280;2097;51.104;7.150;2023-03-19T10:21:28;98676.81;;;13.72;90.29
4167;BME280;2097;51.104;7.150;2023-03-19T10:24:00;98681.09;;;13.73;90.19
4167;BME280;2097;51.104;7.150;2023-03-19T10:26:31;98591.97;;;13.32;90.60
4167;BME280;2097;51.104;7.150;2023-03-19T10:29:03;98683.13;;;14.04;89.83
4167;BME280;2097;51.104;7.150;2023-03-19T10:31:45;98684.34;;;14.11;89.05
4167;BME280;2097;51.104;7.150;2023-03-19T10:34:22;98685.47;;;14.19;89.10
4167;BME280;2097;51.104;7.150;2023-03-19T10:37:02;98686.00;;;14.35;88.73
4167;BME280;2097;51.104;7.150;2023-03-19T10:39:32;98684.56;;;14.31;88.22
4167;BME280;2097;51.104;7.150;2023-03-19T10:44:52;98692.31;;;14.44;87.98
4167;BME280;2097;51.104;7.150;2023-03-19T10:47:24;98690.66;;;14.43;87.54
4167;BME280;2097;51.104;7.150;2023-03-19T10:49:52;98704.38;;;14.34;87.34
4167;BME280;2097;51.104;7.150;2023-03-19T10:52:27;98696.44;;;14.12;87.92
4167;BME280;2097;51.104;7.150;2023-03-19T10:55:02;98701.16;;;14.07;88.21
4167;BME280;2097;51.104;7.150;2023-03-19T10:57:30;98705.22;;;14.11;88.21
4167;BME280;2097;51.104;7.150;2023-03-19T11:00:02;98702.72;;;14.09;87.99
4167;BME280;2097;51.104;7.150;2023-03-19T11:02:31;98701.16;;;14.07;87.66
4167;BME280;2097;51.104;7.150;2023-03-19T11:05:21;98698.88;;;14.02;87.64
4167;BME280;2097;51.104;7.150;2023-03-19T11:07:53;98708.38;;;14.16;87.42
4167;BME280;2097;51.104;7.150;2023-03-19T11:10:21;98674.31;;;14.17;86.92
4167;BME280;2097;51.104;7.150;2023-03-19T11:12:54;98708.34;;;14.50;86.38
4167;BME280;2097;51.104;7.150;2023-03-19T11:15:25;98698.41;;;14.55;85.89
4167;BME280;2097;51.104;7.150;2023-03-19T11:17:56;98701.47;;;14.49;86.00
4167;BME280;2097;51.104;7.150;2023-03-19T11:20:28;98703.56;;;14.44;86.46
4167;BME280;2097;51.104;7.150;2023-03-19T11:23:00;98701.31;;;14.40;86.60
4167;BME280;2097;51.104;7.150;2023-03-19T11:25:30;98700.34;;;14.30;87.26
4167;BME280;2097;51.104;7.150;2023-03-19T11:28:02;98702.50;;;14.36;87.59
4167;BME280;2097;51.104;7.150;2023-03-19T11:30:37;98697.28;;;14.36;87.83
4167;BME280;2097;51.104;7.150;2023-03-19T11:33:16;98699.47;;;14.53;87.88
4167;BME280;2097;51.104;7.150;2023-03-19T11:35:50;98704.72;;;14.75;87.13
4167;BME280;2097;51.104;7.150;2023-03-19T11:38:32;98708.91;;;14.88;86.95
4167;BME280;2097;51.104;7.150;2023-03-19T11:41:08;98702.13;;;14.96;86.58
4167;BME280;2097;51.104;7.150;2023-03-19T11:43:46;98698.34;;;14.89;86.81
4167;BME280;2097;51.104;7.150;2023-03-19T11:46:22;98706.91;;;14.91;87.22
4167;BME280;2097;51.104;7.150;2023-03-19T11:49:18;98698.94;;;14.93;86.99
4167;BME280;2097;51.104;7.150;2023-03-19T11:51:49;98699.06;;;15.02;86.80
4167;BME280;2097;51.104;7.150;2023-03-19T11:54:22;98692.88;;;15.03;86.82
4167;BME280;2097;51.104;7.150;2023-03-19T11:56:57;98698.22;;;15.24;86.68
4167;BME280;2097;51.104;7.150;2023-03-19T11:59:35;98703.22;;;15.49;85.88
4167;BME280;2097;51.104;7.150;2023-03-19T12:02:30;98692.31;;;15.44;85.33
4167;BME280;2097;51.104;7.150;2023-03-19T12:05:16;98695.38;;;15.49;85.05
4167;BME280;2097;51.104;7.150;2023-03-19T12:07:53;98694.09;;;15.43;84.53
4167;BME280;2097;51.104;7.150;2023-03-19T12:10:32;98701.47;;;15.49;84.61
4167;BME280;2097;51.104;7.150;2023-03-19T12:13:20;98694.31;;;15.51;84.36
4167;BME280;2097;51.104;7.150;2023-03-19T12:15:59;98693.59;;;15.49;83.98
4167;BME280;2097;51.104;7.150;2023-03-19T12:18:49;98696.47;;;15.46;83.70
4167;BME280;2097;51.104;7.150;2023-03-19T12:21:24;98689.81;;;15.53;83.17
4167;BME280;2097;51.104;7.150;2023-03-19T12:24:01;98696.69;;;15.54;82.99
4167;BME280;2097;51.104;7.150;2023-03-19T12:26:36;98679.81;;;15.36;82.93
4167;BME280;2097;51.104;7.150;2023-03-19T12:29:15;98688.13;;;15.52;83.25
4167;BME280;2097;51.104;7.150;2023-03-19T12:34:41;98690.09;;;16.13;81.42
4167;BME280;2097;51.104;7.150;2023-03-19T12:37:17;98579.09;;;15.53;80.97
4167;BME280;2097;51.104;7.150;2023-03-19T12:39:53;98686.06;;;16.09;80.97
4167;BME280;2097;51.104;7.150;2023-03-19T12:42:28;98611.81;;;15.47;81.56
4167;BME280;2097;51.104;7.150;2023-03-19T12:44:59;98680.00;;;15.77;82.15
4167;BME280;2097;51.104;7.150;2023-03-19T12:47:32;98687.91;;;15.55;82.54
4167;BME280;2097;51.104;7.150;2023-03-19T12:50:03;98680.78;;;15.35;83.11
4167;BME280;2097;51.104;7.150;2023-03-19T12:52:34;98679.72;;;15.27;83.69
4167;BME280;2097;51.104;7.150;2023-03-19T12:55:05;98680.88;;;15.23;83.72
4167;BME280;2097;51.104;7.150;2023-03-19T12:57:43;98686.72;;;15.15;83.94
4167;BME280;2097;51.104;7.150;2023-03-19T13:00:18;98674.81;;;15.00;83.96
4167;BME280;2097;51.104;7.150;2023-03-19T13:02:52;98630.38;;;14.68;84.28
4167;BME280;2097;51.104;7.150;2023-03-19T13:05:28;98693.25;;;14.99;84.04
4167;BME280;2097;51.104;7.150;2023-03-19T13:08:02;98689.91;;;14.86;84.39
4167;BME280;2097;51.104;7.150;2023-03-19T13:10:30;98694.38;;;14.62;84.81
4167;BME280;2097;51.104;7.150;2023-03-19T13:12:59;98693.84;;;14.35;85.33
4167;BME280;2097;51.104;7.150;2023-03-19T13:15:35;98697.41;;;14.11;86.01
4167;BME280;2097;51.104;7.150;2023-03-19T13:18:13;98691.69;;;13.82;86.27
4167;BME280;2097;51.104;7.150;2023-03-19T13:20:52;98692.16;;;13.64;87.25
4167;BME280;2097;51.104;7.150;2023-03-19T13:23:25;98692.13;;;13.41;87.64
4167;BME280;2097;51.104;7.150;2023-03-19T13:25:56;98671.75;;;13.10;87.80
4167;BME280;2097;51.104;7.150;2023-03-19T13:28:29;98691.28;;;13.04;88.10
4167;BME280;2097;51.104;7.150;2023-03-19T13:31:00;98688.78;;;12.90;88.62
4167;BME280;2097;51.104;7.150;2023-03-19T13:33:28;98691.97;;;12.81;88.64
4167;BME280;2097;51.104;7.150;2023-03-19T13:35:59;98693.56;;;12.71;89.17
4167;BME280;2097;51.104;7.150;2023-03-19T13:38:38;98685.50;;;12.62;90.13
4167;BME280;2097;51.104;7.150;2023-03-19T13:41:51;98681.03;;;12.51;90.99
4167;BME280;2097;51.104;7.150;2023-03-19T13:44:48;98681.22;;;12.36;91.12